createdAt,value
2019-03-22T00:01:52.152Z,90.60
2019-03-22T00:04:22.692Z,90.10
2019-03-22T00:06:55.021Z,90.20
2019-03-22T00:09:25.478Z,90.20
2019-03-22T00:11:55.844Z,90.10
2019-03-22T00:14:26.229Z,90.30
2019-03-22T00:16:56.553Z,90.80
2019-03-22T00:19:27.561Z,90.00
2019-03-22T00:21:57.919Z,90.20
2019-03-22T00:24:28.488Z,90.50
2019-03-22T00:27:01.198Z,90.00
2019-03-22T00:32:00.999Z,90.70
2019-03-22T00:37:00.829Z,90.10
2019-03-22T00:39:33.391Z,90.20
2019-03-22T00:42:05.964Z,90.40
2019-03-22T00:44:36.027Z,90.40
2019-03-22T00:47:06.504Z,91.00
2019-03-22T00:49:37.102Z,91.00
2019-03-22T00:52:09.008Z,91.10
2019-03-22T00:54:39.579Z,90.80
2019-03-22T00:57:10.151Z,92.00
2019-03-22T00:59:40.717Z,91.00
2019-03-22T01:02:14.016Z,91.70
2019-03-22T01:04:44.740Z,91.70
2019-03-22T01:07:22.934Z,92.00
2019-03-22T01:09:53.584Z,91.70
2019-03-22T01:12:25.853Z,91.60
2019-03-22T01:17:25.799Z,92.20
2019-03-22T01:19:58.218Z,91.60
2019-03-22T01:22:30.199Z,91.60
2019-03-22T01:25:02.934Z,91.80
2019-03-22T01:27:40.494Z,92.20
2019-03-22T01:30:09.075Z,91.90
2019-03-22T01:35:14.664Z,92.10
2019-03-22T01:37:46.216Z,91.50
2019-03-22T01:40:17.359Z,92.50
2019-03-22T01:42:48.890Z,91.80
2019-03-22T01:45:19.291Z,91.90
2019-03-22T01:47:49.780Z,92.00
2019-03-22T01:50:20.778Z,92.50
2019-03-22T01:52:51.539Z,92.00
2019-03-22T01:55:23.961Z,92.40
2019-03-22T01:57:56.745Z,91.60
2019-03-22T02:00:27.146Z,92.00
2019-03-22T02:05:26.918Z,92.00
2019-03-22T02:07:57.189Z,91.00
2019-03-22T02:10:27.609Z,91.90
2019-03-22T02:12:57.973Z,91.60
2019-03-22T02:15:29.769Z,92.00
2019-03-22T02:18:00.288Z,90.80
2019-03-22T02:20:30.997Z,91.90
2019-03-22T02:23:04.128Z,91.70
2019-03-22T02:25:34.552Z,92.80
2019-03-22T02:28:05.078Z,92.30
2019-03-22T02:30:35.344Z,92.10
2019-03-22T02:33:05.739Z,93.00
2019-03-22T02:35:36.018Z,92.80
2019-03-22T02:38:09.042Z,93.10
2019-03-22T02:40:39.368Z,92.50
2019-03-22T02:43:09.884Z,92.50
2019-03-22T02:45:40.307Z,93.00
2019-03-22T02:48:10.636Z,92.10
2019-03-22T02:50:40.959Z,93.00
2019-03-22T02:53:11.512Z,90.90
2019-03-22T02:55:41.789Z,91.70
2019-03-22T02:58:20.498Z,91.10
2019-03-22T03:00:45.813Z,91.70
2019-03-22T03:03:16.096Z,92.70
2019-03-22T03:05:46.418Z,92.90
2019-03-22T03:08:16.911Z,92.60
2019-03-22T03:10:47.275Z,92.90
2019-03-22T03:13:17.923Z,93.60
2019-03-22T03:15:48.126Z,93.80
2019-03-22T03:18:20.722Z,93.80
2019-03-22T03:23:22.860Z,93.90
2019-03-22T03:25:53.478Z,93.30
2019-03-22T03:28:35.956Z,93.70
2019-03-22T03:30:57.561Z,93.50
2019-03-22T03:33:28.359Z,90.20
2019-03-22T03:35:58.766Z,93.40
2019-03-22T03:41:02.592Z,93.50
2019-03-22T03:43:33.037Z,94.10
2019-03-22T03:46:05.583Z,93.50
2019-03-22T03:48:38.287Z,93.10
2019-03-22T03:51:13.898Z,93.30
2019-03-22T03:53:43.394Z,93.50
2019-03-22T03:56:15.084Z,92.60
2019-03-22T03:58:52.642Z,93.60
2019-03-22T04:01:21.499Z,94.00
2019-03-22T04:03:52.408Z,93.40
2019-03-22T04:06:23.042Z,94.00
2019-03-22T04:08:55.940Z,94.10
2019-03-22T04:11:26.327Z,94.20
2019-03-22T04:13:56.784Z,93.30
2019-03-22T04:16:27.253Z,94.20
2019-03-22T04:18:57.684Z,93.70
2019-03-22T04:21:28.414Z,94.20
2019-03-22T04:23:58.814Z,93.60
2019-03-22T04:26:30.711Z,94.50
2019-03-22T04:29:07.478Z,93.80
2019-03-22T04:31:33.408Z,93.80
2019-03-22T04:34:05.250Z,93.80
2019-03-22T04:36:35.719Z,93.90
2019-03-22T04:39:09.132Z,93.50
2019-03-22T04:41:39.890Z,94.40
2019-03-22T04:44:10.413Z,93.40
2019-03-22T04:46:43.413Z,94.50
2019-03-22T04:49:15.356Z,93.60
2019-03-22T04:51:46.420Z,94.40
2019-03-22T04:54:19.538Z,93.70
2019-03-22T04:56:52.297Z,93.80
2019-03-22T04:59:23.848Z,94.20
2019-03-22T05:01:56.531Z,93.40
2019-03-22T05:04:30.722Z,94.00
2019-03-22T05:07:01.677Z,93.10
2019-03-22T05:09:35.104Z,93.80
2019-03-22T05:12:06.374Z,93.60
2019-03-22T05:14:41.874Z,94.30
2019-03-22T05:17:15.990Z,92.80
2019-03-22T05:20:05.763Z,93.50
2019-03-22T05:22:44.968Z,88.00
2019-03-22T05:25:16.039Z,93.30
2019-03-22T05:27:48.909Z,93.50
2019-03-22T05:31:02.971Z,93.50
2019-03-22T05:33:33.706Z,93.10
2019-03-22T05:36:06.569Z,93.20
2019-03-22T05:38:39.481Z,90.10
2019-03-22T05:41:10.137Z,93.00
2019-03-22T05:43:45.069Z,93.40
2019-03-22T05:46:15.614Z,93.20
2019-03-22T05:48:47.133Z,93.80
2019-03-22T05:51:18.833Z,93.70
2019-03-22T05:53:49.258Z,92.70
2019-03-22T05:56:19.819Z,92.60
2019-03-22T05:58:50.552Z,93.10
2019-03-22T06:01:21.003Z,93.80
2019-03-22T06:03:51.541Z,93.20
2019-03-22T06:06:22.190Z,93.70
2019-03-22T06:09:00.249Z,93.30
2019-03-22T06:11:32.036Z,92.90
2019-03-22T06:14:03.803Z,92.90
2019-03-22T06:16:34.473Z,92.10
2019-03-22T06:21:37.261Z,92.70
2019-03-22T06:24:10.494Z,92.40
2019-03-22T06:26:41.137Z,92.80
2019-03-22T06:29:13.086Z,92.20
2019-03-22T06:31:46.953Z,92.40
2019-03-22T06:34:17.401Z,91.30
2019-03-22T06:36:50.139Z,91.90
2019-03-22T06:39:23.557Z,93.10
2019-03-22T06:41:54.267Z,93.70
2019-03-22T06:44:27.220Z,92.80
2019-03-22T06:46:57.767Z,92.60
2019-03-22T06:49:30.695Z,93.00
2019-03-22T06:52:02.116Z,93.00
2019-03-22T06:54:32.675Z,92.40
2019-03-22T06:57:09.305Z,92.70
2019-03-22T06:59:39.745Z,92.90
2019-03-22T07:04:41.978Z,91.60
2019-03-22T07:07:12.705Z,92.20
2019-03-22T07:09:43.122Z,92.20
2019-03-22T07:12:13.747Z,91.60
2019-03-22T07:14:45.081Z,91.80
2019-03-22T07:19:46.596Z,91.60
2019-03-22T07:22:19.848Z,90.40
2019-03-22T07:24:57.920Z,90.80
2019-03-22T07:27:25.647Z,90.20
2019-03-22T07:29:56.256Z,91.40
2019-03-22T07:32:28.217Z,90.00
2019-03-22T07:35:01.027Z,89.10
2019-03-22T07:37:31.487Z,89.50
2019-03-22T07:40:01.945Z,88.30
2019-03-22T07:45:02.296Z,89.50
2019-03-22T07:47:32.895Z,89.20
2019-03-22T07:50:03.419Z,89.00
2019-03-22T07:52:33.988Z,88.40
2019-03-22T07:55:05.064Z,87.60
2019-03-22T07:57:38.907Z,89.60
2019-03-22T08:00:15.822Z,88.40
2019-03-22T08:02:49.108Z,90.40
2019-03-22T08:05:19.495Z,90.20
2019-03-22T08:07:49.806Z,90.20
2019-03-22T08:10:20.096Z,89.70
2019-03-22T08:12:50.425Z,84.70
2019-03-22T08:15:31.804Z,78.30
2019-03-22T08:25:32.558Z,89.20
2019-03-22T08:28:03.191Z,90.10
2019-03-22T08:33:07.385Z,87.80
2019-03-22T08:38:07.091Z,86.80
2019-03-22T08:40:37.810Z,86.90
2019-03-22T08:43:09.707Z,87.30
2019-03-22T08:48:11.258Z,87.30
2019-03-22T08:50:41.776Z,86.40
2019-03-22T08:53:12.480Z,86.30
2019-03-22T08:55:42.774Z,87.40
2019-03-22T08:58:13.438Z,86.80
2019-03-22T09:00:56.674Z,84.20
2019-03-22T09:05:46.386Z,84.10
2019-03-22T09:08:16.677Z,85.10
2019-03-22T09:10:47.097Z,85.50
2019-03-22T09:15:46.772Z,85.40
2019-03-22T09:18:19.915Z,83.90
2019-03-22T09:20:50.277Z,84.70
2019-03-22T09:23:20.814Z,84.20
2019-03-22T09:25:51.108Z,83.60
2019-03-22T09:28:21.534Z,84.10
2019-03-22T09:30:52.014Z,82.40
2019-03-22T09:33:22.390Z,84.00
2019-03-22T09:35:52.680Z,83.20
2019-03-22T09:38:24.027Z,83.60
2019-03-22T09:40:54.372Z,82.30
2019-03-22T09:43:24.605Z,82.90
2019-03-22T09:45:54.845Z,80.40
2019-03-22T09:48:25.061Z,68.00
2019-03-22T09:50:55.330Z,77.60
2019-03-22T09:53:25.872Z,76.80
2019-03-22T09:55:56.255Z,82.20
2019-03-22T09:58:26.638Z,80.50
2019-03-22T10:00:57.066Z,79.30
2019-03-22T10:05:56.827Z,75.70
2019-03-22T10:08:27.199Z,77.90
2019-03-22T10:10:57.439Z,77.70
2019-03-22T10:13:27.815Z,77.30
2019-03-22T10:15:58.158Z,78.40
2019-03-22T10:18:28.494Z,78.50
2019-03-22T10:20:58.949Z,80.30
2019-03-22T10:23:29.141Z,76.70
2019-03-22T10:25:59.511Z,79.40
2019-03-22T10:28:31.340Z,79.70
2019-03-22T10:31:01.752Z,80.00
2019-03-22T10:33:32.149Z,77.80
2019-03-22T10:36:03.958Z,78.40
2019-03-22T10:38:34.243Z,80.10
2019-03-22T10:41:04.598Z,78.50
2019-03-22T10:43:34.835Z,78.40
2019-03-22T10:46:07.861Z,78.30
2019-03-22T10:51:06.344Z,78.50
2019-03-22T10:53:36.622Z,78.70
2019-03-22T10:56:07.291Z,78.40
2019-03-22T10:58:37.637Z,77.60
2019-03-22T11:01:08.693Z,78.50
2019-03-22T11:03:39.486Z,77.30
2019-03-22T11:06:09.885Z,77.90
2019-03-22T11:08:40.517Z,77.80
2019-03-22T11:11:10.766Z,78.00
2019-03-22T11:13:41.051Z,78.70
2019-03-22T11:16:11.742Z,78.50
2019-03-22T11:18:44.640Z,79.00
2019-03-22T11:21:14.921Z,77.60
2019-03-22T11:23:45.175Z,78.50
2019-03-22T11:26:15.608Z,78.70
2019-03-22T11:31:15.125Z,76.20
2019-03-22T11:33:45.414Z,78.70
2019-03-22T11:36:15.645Z,78.30
2019-03-22T11:38:45.910Z,77.80
2019-03-22T11:41:16.221Z,78.30
2019-03-22T11:43:46.802Z,77.50
2019-03-22T11:46:16.966Z,78.30
2019-03-22T11:51:17.066Z,77.30
2019-03-22T11:53:47.317Z,77.90
2019-03-22T11:56:17.775Z,78.10
2019-03-22T11:58:48.245Z,77.80
2019-03-22T12:01:21.278Z,77.20
2019-03-22T12:06:19.870Z,76.60
2019-03-22T12:08:50.308Z,77.40
2019-03-22T12:11:20.776Z,77.40
2019-03-22T12:13:51.059Z,76.00
2019-03-22T12:16:21.398Z,76.70
2019-03-22T12:18:53.041Z,75.40
2019-03-22T12:21:23.392Z,76.30
2019-03-22T12:23:56.350Z,74.60
2019-03-22T12:26:47.064Z,75.10
2019-03-22T12:29:17.690Z,66.50
2019-03-22T12:31:48.165Z,70.40
2019-03-22T12:34:18.560Z,73.40
2019-03-22T12:36:49.016Z,73.90
2019-03-22T12:39:19.411Z,73.30
2019-03-22T12:41:59.565Z,73.60
2019-03-22T12:44:30.069Z,74.00
2019-03-22T12:47:02.223Z,73.60
2019-03-22T12:49:33.215Z,73.60
2019-03-22T12:52:03.713Z,74.00
2019-03-22T12:54:36.476Z,72.70
2019-03-22T12:57:09.615Z,74.00
2019-03-22T12:59:40.005Z,73.40
2019-03-22T13:02:10.535Z,73.20
2019-03-22T13:04:40.891Z,73.80
2019-03-22T13:07:12.428Z,73.20
2019-03-22T13:09:42.671Z,73.20
2019-03-22T13:12:13.232Z,73.50
2019-03-22T13:14:45.879Z,73.40
2019-03-22T13:19:52.167Z,72.40
2019-03-22T13:22:22.589Z,72.60
2019-03-22T13:24:55.901Z,72.20
2019-03-22T13:27:26.268Z,72.70
2019-03-22T13:29:56.830Z,71.40
2019-03-22T13:32:27.283Z,70.40
2019-03-22T13:34:57.671Z,69.50
2019-03-22T13:37:28.091Z,69.80
2019-03-22T13:44:57.571Z,66.50
2019-03-22T13:47:27.928Z,65.60
2019-03-22T13:52:27.948Z,62.50
2019-03-22T13:54:58.440Z,61.00
2019-03-22T13:57:28.879Z,61.30
2019-03-22T13:59:59.256Z,60.20
2019-03-22T14:02:29.696Z,57.90
2019-03-22T14:05:01.814Z,59.80
2019-03-22T14:10:01.699Z,61.20
2019-03-22T14:15:04.578Z,62.30
2019-03-22T14:17:35.167Z,58.10
2019-03-22T14:20:11.086Z,62.20
2019-03-22T14:22:38.988Z,62.00
2019-03-22T14:25:11.573Z,61.90
2019-03-22T14:27:41.986Z,63.70
2019-03-22T14:30:12.559Z,64.50
2019-03-22T14:32:44.590Z,65.50
2019-03-22T14:37:44.183Z,64.40
2019-03-22T14:42:45.449Z,64.90
2019-03-22T14:45:15.967Z,65.50
2019-03-22T14:47:46.249Z,65.00
2019-03-22T14:50:16.733Z,66.00
2019-03-22T14:52:46.978Z,64.90
2019-03-22T14:55:17.582Z,63.00
2019-03-22T15:00:18.923Z,61.50
2019-03-22T15:02:49.170Z,60.00
2019-03-22T15:05:19.502Z,58.20
2019-03-22T15:10:19.218Z,56.60
2019-03-22T15:12:49.548Z,55.30
2019-03-22T15:15:38.792Z,52.70
2019-03-22T15:18:30.268Z,52.60
2019-03-22T15:21:11.973Z,51.40
2019-03-22T15:24:03.686Z,51.20
2019-03-22T15:29:59.306Z,52.20
2019-03-22T15:32:37.477Z,52.80
2019-03-22T15:35:36.084Z,47.20
2019-03-22T15:38:25.267Z,55.90
2019-03-22T15:40:55.679Z,56.90
2019-03-22T15:43:26.152Z,57.50
2019-03-22T15:45:57.571Z,58.50
2019-03-22T15:48:27.942Z,57.20
2019-03-22T15:50:58.226Z,59.90
2019-03-22T15:53:28.550Z,64.70
2019-03-22T15:55:58.842Z,65.90
2019-03-22T16:00:58.854Z,61.00
2019-03-22T16:03:29.248Z,67.00
2019-03-22T16:05:59.552Z,66.70
2019-03-22T16:08:29.914Z,66.70
2019-03-22T16:11:01.497Z,67.60
2019-03-22T16:13:31.802Z,67.80
2019-03-22T16:16:02.482Z,67.40
2019-03-22T16:18:33.173Z,69.80
2019-03-22T16:21:04.246Z,70.10
2019-03-22T16:23:34.614Z,69.90
2019-03-22T16:26:05.092Z,71.30
2019-03-22T16:28:35.294Z,70.60
2019-03-22T16:31:05.839Z,70.00
2019-03-22T16:33:36.071Z,69.90
2019-03-22T16:36:06.365Z,71.90
2019-03-22T16:38:36.916Z,68.40
2019-03-22T16:46:05.850Z,73.00
2019-03-22T16:48:36.262Z,72.40
2019-03-22T16:51:06.736Z,71.90
2019-03-22T16:53:37.404Z,73.20
2019-03-22T16:56:07.703Z,68.40
2019-03-22T17:01:07.947Z,69.20
2019-03-22T17:06:07.730Z,71.60
2019-03-22T17:08:38.230Z,72.80
2019-03-22T17:11:10.508Z,73.10
2019-03-22T17:13:42.199Z,73.30
2019-03-22T17:18:43.689Z,71.80
2019-03-22T17:21:14.090Z,70.50
2019-03-22T17:26:14.229Z,73.60
2019-03-22T17:28:48.364Z,74.20
2019-03-22T17:31:18.587Z,74.00
2019-03-22T17:33:49.041Z,74.00
2019-03-22T17:36:21.988Z,74.00
2019-03-22T17:38:52.589Z,75.00
2019-03-22T17:41:22.929Z,73.70
2019-03-22T17:43:53.618Z,74.10
2019-03-22T17:46:23.976Z,75.20
2019-03-22T17:48:54.251Z,75.20
2019-03-22T17:51:24.623Z,75.60
2019-03-22T17:53:55.262Z,75.40
2019-03-22T17:56:25.541Z,75.70
2019-03-22T17:58:58.486Z,76.30
2019-03-22T18:01:28.940Z,76.20
2019-03-22T18:03:59.479Z,76.30
2019-03-22T18:06:29.786Z,68.20
2019-03-22T18:09:00.076Z,77.60
2019-03-22T18:11:30.585Z,77.50
2019-03-22T18:14:01.033Z,77.50
2019-03-22T18:19:03.317Z,77.70
2019-03-22T18:26:32.464Z,67.80
2019-03-22T18:29:02.896Z,76.10
2019-03-22T18:31:33.374Z,76.80
2019-03-22T18:34:03.758Z,76.10
2019-03-22T18:39:06.718Z,76.30
2019-03-22T18:44:06.526Z,78.10
2019-03-22T18:46:37.068Z,77.70
2019-03-22T18:49:07.943Z,78.50
2019-03-22T18:54:10.153Z,79.40
2019-03-22T18:56:42.488Z,82.80
2019-03-22T18:59:15.871Z,80.60
2019-03-22T19:01:47.262Z,78.60
2019-03-22T19:04:19.207Z,83.40
2019-03-22T19:06:50.810Z,80.00
2019-03-22T19:09:22.171Z,80.00
2019-03-22T19:11:52.639Z,83.70
2019-03-22T19:16:52.614Z,80.70
2019-03-22T19:19:25.693Z,85.10
2019-03-22T19:21:59.313Z,85.30
2019-03-22T19:24:30.211Z,84.20
2019-03-22T19:27:00.787Z,85.70
2019-03-22T19:29:37.001Z,86.30
2019-03-22T19:35:02.433Z,86.40
2019-03-22T19:37:33.058Z,85.10
2019-03-22T19:40:08.347Z,87.90
2019-03-22T19:42:40.311Z,87.30
2019-03-22T19:47:40.406Z,85.50
2019-03-22T19:50:11.146Z,87.40
2019-03-22T19:55:29.397Z,88.10
2019-03-22T19:58:01.832Z,88.10
2019-03-22T20:00:32.443Z,88.30
2019-03-22T20:03:06.512Z,89.50
2019-03-22T20:08:12.785Z,89.20
2019-03-22T20:10:42.895Z,89.80
2019-03-22T20:13:18.156Z,84.70
2019-03-22T20:23:22.053Z,87.20
2019-03-22T20:25:52.786Z,89.50
2019-03-22T20:28:25.557Z,88.20
2019-03-22T20:30:58.966Z,87.70
2019-03-22T20:33:33.272Z,89.90
2019-03-22T20:36:06.236Z,88.90
2019-03-22T20:38:36.846Z,89.40
2019-03-22T20:41:07.518Z,89.20
2019-03-22T20:43:39.633Z,89.40
2019-03-22T20:46:14.128Z,90.10
2019-03-22T20:51:15.927Z,89.50
2019-03-22T20:53:51.227Z,89.70
2019-03-22T20:56:29.046Z,89.60
2019-03-22T20:59:32.425Z,88.90
2019-03-22T21:02:08.403Z,89.90
2019-03-22T21:04:43.636Z,90.30
2019-03-22T21:07:19.501Z,90.00
2019-03-22T21:09:57.409Z,89.60
2019-03-22T21:12:28.094Z,91.20
2019-03-22T21:14:59.894Z,91.40
2019-03-22T21:17:40.653Z,92.60
2019-03-22T21:20:11.848Z,91.80
2019-03-22T21:22:43.736Z,92.20
2019-03-22T21:25:15.677Z,92.10
2019-03-22T21:27:50.348Z,91.30
2019-03-22T21:30:22.519Z,91.40
2019-03-22T21:32:53.428Z,91.80
2019-03-22T21:35:37.159Z,92.20
2019-03-22T21:38:10.342Z,91.40
2019-03-22T21:40:33.636Z,91.60
2019-03-22T21:43:17.894Z,92.10
2019-03-22T21:45:45.623Z,91.10
2019-03-22T21:48:17.520Z,92.10
2019-03-22T21:50:48.072Z,91.90
2019-03-22T21:53:20.138Z,92.10
2019-03-22T21:55:54.294Z,91.90
2019-03-22T21:58:26.490Z,91.90
2019-03-22T22:03:31.063Z,92.20
2019-03-22T22:06:01.688Z,92.40
2019-03-22T22:08:34.134Z,93.00
2019-03-22T22:11:04.986Z,92.40
2019-03-22T22:13:35.551Z,92.50
2019-03-22T22:16:10.883Z,92.10
2019-03-22T22:18:40.333Z,92.30
2019-03-22T22:21:10.810Z,92.10
2019-03-22T22:23:42.782Z,91.70
2019-03-22T22:26:17.617Z,92.20
2019-03-22T22:28:47.962Z,92.60
2019-03-22T22:31:18.739Z,92.20
2019-03-22T22:33:50.810Z,92.80
2019-03-22T22:36:22.962Z,92.60
2019-03-22T22:41:22.823Z,91.20
2019-03-22T22:43:53.370Z,91.50
2019-03-22T22:46:25.163Z,92.50
2019-03-22T22:48:58.169Z,91.20
2019-03-22T22:51:31.067Z,91.00
2019-03-22T22:59:05.124Z,92.30
2019-03-22T23:01:36.959Z,93.40
2019-03-22T23:04:07.372Z,92.80
2019-03-22T23:06:42.351Z,92.60
2019-03-22T23:09:18.004Z,92.70
2019-03-22T23:11:50.548Z,93.10
2019-03-22T23:14:20.517Z,91.60
2019-03-22T23:16:51.149Z,92.10
2019-03-22T23:19:21.548Z,91.90
2019-03-22T23:21:52.012Z,92.50
2019-03-22T23:24:22.445Z,93.40
2019-03-22T23:26:52.912Z,92.50
2019-03-22T23:29:23.179Z,91.80
2019-03-22T23:31:56.204Z,92.30
2019-03-22T23:34:26.572Z,93.60
2019-03-22T23:36:57.038Z,93.80
2019-03-22T23:39:27.599Z,93.20
2019-03-22T23:44:27.362Z,94.70
2019-03-22T23:46:57.883Z,94.50
2019-03-22T23:49:30.562Z,94.60
2019-03-22T23:52:03.213Z,94.30
2019-03-22T23:54:33.659Z,94.10
2019-03-22T23:59:33.490Z,93.90
